createdAt,value
2022-12-28T00:02:17.917Z,80.00
2022-12-28T00:04:46.093Z,80.10
2022-12-28T00:07:14.422Z,80.00
2022-12-28T00:09:43.923Z,80.00
2022-12-28T00:12:12.109Z,79.90
2022-12-28T00:14:40.353Z,80.10
2022-12-28T00:17:08.652Z,80.10
2022-12-28T00:19:36.813Z,80.00
2022-12-28T00:22:05.006Z,80.20
2022-12-28T00:24:33.286Z,80.00
2022-12-28T00:27:02.835Z,80.10
2022-12-28T00:29:30.916Z,79.90
2022-12-28T00:31:59.178Z,80.10
2022-12-28T00:34:27.293Z,80.20
2022-12-28T00:37:12.277Z,80.20
2022-12-28T00:39:41.803Z,80.00
2022-12-28T00:42:12.107Z,79.90
2022-12-28T00:44:40.605Z,79.90
2022-12-28T00:47:09.045Z,79.90
2022-12-28T00:49:37.181Z,79.90
2022-12-28T00:52:05.753Z,80.00
2022-12-28T00:54:33.860Z,79.90
2022-12-28T00:57:01.991Z,79.90
2022-12-28T00:59:31.622Z,79.90
2022-12-28T01:01:59.861Z,79.80
2022-12-28T01:04:28.147Z,80.00
2022-12-28T01:06:56.338Z,79.90
2022-12-28T01:09:24.543Z,80.10
2022-12-28T01:11:52.649Z,80.00
2022-12-28T01:14:20.820Z,80.10
2022-12-28T01:16:50.362Z,80.00
2022-12-28T01:19:22.268Z,80.00
2022-12-28T01:21:51.551Z,79.90
2022-12-28T01:24:19.932Z,79.90
2022-12-28T01:26:48.081Z,79.90
2022-12-28T01:29:16.179Z,79.80
2022-12-28T01:31:44.405Z,79.90
2022-12-28T01:34:13.968Z,79.80
2022-12-28T01:36:42.113Z,79.80
2022-12-28T01:39:11.635Z,79.80
2022-12-28T01:41:42.423Z,79.70
2022-12-28T01:44:40.931Z,79.80
2022-12-28T01:47:13.092Z,79.70
2022-12-28T01:49:47.512Z,79.90
2022-12-28T01:52:22.280Z,79.60
2022-12-28T01:54:54.574Z,79.40
2022-12-28T01:57:28.480Z,79.70
2022-12-28T02:00:02.016Z,79.50
2022-12-28T02:02:32.118Z,79.70
2022-12-28T02:05:02.067Z,79.40
2022-12-28T02:07:39.299Z,79.40
2022-12-28T02:10:43.893Z,79.60
2022-12-28T02:12:58.848Z,79.70
2022-12-28T02:15:27.074Z,79.40
2022-12-28T02:17:55.346Z,79.40
2022-12-28T02:20:28.597Z,79.70
2022-12-28T02:23:30.294Z,79.40
2022-12-28T02:26:34.197Z,79.50
2022-12-28T02:29:35.019Z,79.40
2022-12-28T02:32:15.306Z,79.40
2022-12-28T02:34:50.928Z,79.60
2022-12-28T02:37:24.317Z,79.50
2022-12-28T02:39:56.913Z,79.40
2022-12-28T02:42:27.683Z,79.40
2022-12-28T02:45:13.346Z,79.30
2022-12-28T02:48:03.280Z,79.20
2022-12-28T02:50:41.074Z,79.30
2022-12-28T02:53:34.501Z,79.40
2022-12-28T02:56:12.293Z,79.40
2022-12-28T02:59:20.706Z,79.50
2022-12-28T03:02:35.053Z,79.20
2022-12-28T03:05:11.815Z,79.50
2022-12-28T03:08:17.648Z,79.70
2022-12-28T03:10:53.288Z,79.70
2022-12-28T03:13:42.167Z,79.60
2022-12-28T03:16:16.283Z,79.50
2022-12-28T03:19:04.907Z,79.60
2022-12-28T03:21:56.358Z,79.50
2022-12-28T03:24:46.746Z,79.30
2022-12-28T03:27:38.189Z,79.40
2022-12-28T03:30:33.336Z,79.30
2022-12-28T03:33:09.114Z,79.20
2022-12-28T03:35:44.844Z,79.20
2022-12-28T03:38:27.885Z,79.40
2022-12-28T03:41:08.337Z,79.20
2022-12-28T03:43:42.768Z,79.20
2022-12-28T03:46:23.730Z,79.00
2022-12-28T03:48:54.758Z,79.10
2022-12-28T03:51:26.496Z,79.10
2022-12-28T03:54:06.088Z,79.00
2022-12-28T03:56:36.395Z,79.20
2022-12-28T03:59:06.953Z,79.10
2022-12-28T04:01:52.893Z,79.00
2022-12-28T04:04:21.533Z,79.10
2022-12-28T04:06:49.674Z,78.90
2022-12-28T04:09:19.221Z,78.90
2022-12-28T04:11:47.551Z,78.80
2022-12-28T04:14:18.288Z,79.10
2022-12-28T04:16:48.716Z,78.90
2022-12-28T04:19:20.555Z,78.90
2022-12-28T04:21:50.918Z,78.90
2022-12-28T04:24:27.006Z,78.70
2022-12-28T04:26:59.330Z,79.10
2022-12-28T04:29:33.959Z,78.40
2022-12-28T04:32:04.396Z,78.10
2022-12-28T04:34:32.519Z,78.20
2022-12-28T04:37:03.196Z,78.20
2022-12-28T04:39:54.331Z,78.10
2022-12-28T04:42:28.194Z,78.00
2022-12-28T04:44:57.172Z,78.10
2022-12-28T04:47:31.499Z,78.30
2022-12-28T04:49:59.727Z,78.20
2022-12-28T04:52:27.853Z,78.10
2022-12-28T04:54:59.779Z,78.10
2022-12-28T04:57:29.021Z,77.80
2022-12-28T05:00:00.620Z,77.70
2022-12-28T05:02:32.583Z,77.70
2022-12-28T05:05:03.430Z,77.80
2022-12-28T05:07:36.083Z,77.60
2022-12-28T05:10:11.189Z,77.60
2022-12-28T05:12:49.701Z,77.60
2022-12-28T05:15:27.614Z,77.70
2022-12-28T05:17:57.331Z,77.10
2022-12-28T05:20:27.552Z,76.80
2022-12-28T05:22:58.437Z,76.40
2022-12-28T05:25:29.029Z,76.20
2022-12-28T05:27:59.843Z,76.20
2022-12-28T05:30:30.044Z,76.10
2022-12-28T05:33:06.567Z,76.50
2022-12-28T05:35:38.980Z,76.10
2022-12-28T05:38:11.344Z,76.40
2022-12-28T05:40:50.609Z,76.50
2022-12-28T05:43:19.179Z,76.00
2022-12-28T05:45:51.801Z,75.80
2022-12-28T05:48:22.817Z,75.80
2022-12-28T05:50:54.829Z,75.70
2022-12-28T05:53:29.231Z,76.20
2022-12-28T05:56:10.746Z,76.20
2022-12-28T05:58:42.556Z,76.10
2022-12-28T06:01:17.688Z,76.00
2022-12-28T06:03:47.974Z,75.90
2022-12-28T06:06:18.273Z,76.00
2022-12-28T06:08:49.106Z,75.60
2022-12-28T06:11:25.961Z,75.50
2022-12-28T06:13:54.160Z,75.40
2022-12-28T06:16:24.403Z,75.40
2022-12-28T06:18:55.114Z,75.10
2022-12-28T06:21:28.665Z,74.60
2022-12-28T06:23:58.748Z,74.30
2022-12-28T06:26:33.671Z,75.00
2022-12-28T06:29:03.526Z,75.00
2022-12-28T06:31:34.305Z,75.00
2022-12-28T06:34:07.871Z,75.20
2022-12-28T06:36:39.059Z,75.20
2022-12-28T06:39:12.755Z,75.10
2022-12-28T06:41:47.164Z,75.00
2022-12-28T06:44:31.346Z,75.00
2022-12-28T06:47:02.789Z,75.10
2022-12-28T06:49:31.186Z,75.00
2022-12-28T06:52:02.955Z,75.20
2022-12-28T06:54:35.076Z,75.30
2022-12-28T06:57:04.986Z,75.20
2022-12-28T06:59:34.776Z,75.30
2022-12-28T07:02:05.925Z,75.40
2022-12-28T07:04:34.201Z,75.40
2022-12-28T07:07:12.088Z,75.50
2022-12-28T07:09:40.294Z,75.40
2022-12-28T07:12:10.890Z,75.60
2022-12-28T07:14:41.654Z,75.80
2022-12-28T07:17:11.987Z,75.60
2022-12-28T07:19:46.128Z,75.60
2022-12-28T07:22:14.311Z,75.90
2022-12-28T07:24:45.368Z,75.90
2022-12-28T07:27:14.883Z,76.10
2022-12-28T07:29:45.313Z,76.30
2022-12-28T07:32:28.440Z,76.40
2022-12-28T07:34:56.527Z,76.40
2022-12-28T07:37:26.060Z,76.30
2022-12-28T07:39:56.789Z,76.40
2022-12-28T07:42:34.782Z,76.30
2022-12-28T07:45:16.786Z,76.40
2022-12-28T07:47:48.276Z,76.50
2022-12-28T07:50:19.987Z,76.50
2022-12-28T07:52:56.807Z,77.00
2022-12-28T07:55:29.826Z,77.00
2022-12-28T07:58:09.658Z,76.90
2022-12-28T08:00:37.773Z,76.90
2022-12-28T08:03:07.998Z,77.00
2022-12-28T08:05:38.347Z,77.10
2022-12-28T08:08:06.907Z,77.10
2022-12-28T08:10:37.999Z,77.10
2022-12-28T08:13:12.310Z,77.20
2022-12-28T08:15:42.081Z,77.10
2022-12-28T08:18:11.469Z,77.10
2022-12-28T08:20:47.050Z,77.10
2022-12-28T08:23:15.215Z,77.10
2022-12-28T08:25:44.978Z,77.20
2022-12-28T08:28:16.363Z,77.20
2022-12-28T08:30:48.665Z,77.30
2022-12-28T08:33:18.105Z,77.10
2022-12-28T08:35:52.203Z,77.10
2022-12-28T08:38:27.708Z,77.10
2022-12-28T08:40:57.623Z,77.00
2022-12-28T08:43:31.096Z,76.90
2022-12-28T08:46:05.718Z,76.90
2022-12-28T08:48:41.278Z,76.70
2022-12-28T08:51:14.366Z,76.60
2022-12-28T08:53:51.575Z,76.70
2022-12-28T08:56:26.657Z,76.60
2022-12-28T08:59:01.325Z,76.50
2022-12-28T09:01:38.923Z,76.30
2022-12-28T09:04:12.869Z,76.30
2022-12-28T09:06:44.734Z,76.30
2022-12-28T09:09:17.413Z,76.20
2022-12-28T09:11:47.994Z,76.10
2022-12-28T09:14:31.614Z,76.20
2022-12-28T09:17:02.031Z,76.20
2022-12-28T09:19:43.103Z,76.00
2022-12-28T09:22:11.543Z,75.90
2022-12-28T09:24:39.679Z,75.90
2022-12-28T09:27:11.444Z,75.90
2022-12-28T09:29:43.465Z,75.70
2022-12-28T09:32:17.674Z,75.70
2022-12-28T09:34:48.357Z,75.70
2022-12-28T09:37:18.827Z,75.40
2022-12-28T09:39:47.527Z,75.50
2022-12-28T09:42:21.715Z,75.30
2022-12-28T09:44:56.745Z,75.20
2022-12-28T09:47:38.058Z,75.10
2022-12-28T09:50:28.554Z,75.10
2022-12-28T09:53:08.661Z,75.00
2022-12-28T09:55:39.943Z,75.00
2022-12-28T09:58:15.261Z,74.90
2022-12-28T10:00:47.435Z,74.50
2022-12-28T10:03:18.334Z,74.80
2022-12-28T10:05:46.952Z,74.60
2022-12-28T10:08:17.174Z,74.60
2022-12-28T10:10:48.896Z,74.50
2022-12-28T10:13:53.047Z,74.40
2022-12-28T10:16:17.803Z,74.40
2022-12-28T10:18:46.793Z,74.50
2022-12-28T10:21:16.003Z,74.30
2022-12-28T10:24:20.803Z,74.10
2022-12-28T10:26:34.740Z,74.00
2022-12-28T10:29:02.908Z,73.80
2022-12-28T10:31:37.782Z,73.70
2022-12-28T10:34:17.584Z,73.70
2022-12-28T10:36:46.440Z,73.60
2022-12-28T10:39:18.662Z,73.40
2022-12-28T10:41:47.441Z,73.40
2022-12-28T10:47:25.945Z,72.90
2022-12-28T10:50:27.057Z,72.60
2022-12-28T10:52:42.677Z,72.30
2022-12-28T10:55:29.641Z,72.20
2022-12-28T10:58:28.599Z,71.80
2022-12-28T11:00:55.284Z,71.70
2022-12-28T11:03:21.230Z,73.30
2022-12-28T11:03:30.598Z,71.00
2022-12-28T11:06:13.296Z,70.30
2022-12-28T11:08:42.552Z,70.10
2022-12-28T11:11:20.093Z,69.80
2022-12-28T11:13:53.309Z,69.00
2022-12-28T11:16:21.693Z,68.90
2022-12-28T11:18:51.657Z,68.50
2022-12-28T11:21:22.338Z,68.60
2022-12-28T11:23:52.187Z,68.20
2022-12-28T11:26:21.191Z,68.10
2022-12-28T11:28:52.891Z,67.70
2022-12-28T11:31:28.635Z,67.40
2022-12-28T11:34:03.473Z,67.00
2022-12-28T11:36:33.651Z,66.70
2022-12-28T11:39:34.031Z,66.30
2022-12-28T11:42:37.069Z,65.70
2022-12-28T11:44:54.844Z,65.50
2022-12-28T11:47:33.363Z,65.10
2022-12-28T11:50:47.255Z,65.10
2022-12-28T11:53:24.582Z,64.60
2022-12-28T11:56:06.722Z,63.40
2022-12-28T11:59:04.771Z,63.50
2022-12-28T12:01:46.545Z,63.40
2022-12-28T12:04:38.687Z,62.10
2022-12-28T12:07:23.693Z,62.60
2022-12-28T12:10:29.739Z,62.20
2022-12-28T12:12:59.704Z,61.50
2022-12-28T12:15:35.105Z,61.40
2022-12-28T12:18:06.512Z,61.60
2022-12-28T12:20:53.828Z,61.00
2022-12-28T12:23:34.825Z,60.40
2022-12-28T12:26:21.828Z,60.60
2022-12-28T12:28:53.689Z,60.90
2022-12-28T12:31:29.713Z,60.50
2022-12-28T12:34:02.924Z,60.40
2022-12-28T12:37:02.026Z,60.10
2022-12-28T12:40:00.179Z,60.30
2022-12-28T12:42:38.823Z,59.80
2022-12-28T12:45:19.183Z,59.30
2022-12-28T12:48:05.853Z,58.70
2022-12-28T12:51:05.258Z,58.80
2022-12-28T12:54:09.201Z,58.50
2022-12-28T12:56:47.112Z,58.10
2022-12-28T12:59:45.434Z,57.70
2022-12-28T13:02:40.257Z,57.70
2022-12-28T13:05:15.718Z,57.10
2022-12-28T13:07:43.998Z,56.70
2022-12-28T13:10:17.904Z,56.80
2022-12-28T13:12:46.217Z,56.50
2022-12-28T13:15:18.332Z,55.00
2022-12-28T13:18:43.588Z,55.00
2022-12-28T13:20:56.147Z,54.90
2022-12-28T13:23:25.074Z,54.30
2022-12-28T13:25:56.024Z,54.00
2022-12-28T13:28:29.588Z,54.00
2022-12-28T13:31:06.793Z,54.40
2022-12-28T13:33:36.516Z,54.50
2022-12-28T13:36:15.588Z,54.60
2022-12-28T13:38:43.730Z,54.00
2022-12-28T13:41:22.430Z,53.90
2022-12-28T13:44:19.624Z,54.00
2022-12-28T13:46:53.816Z,53.70
2022-12-28T13:49:24.387Z,52.60
2022-12-28T13:51:53.700Z,51.60
2022-12-28T13:54:25.119Z,49.90
2022-12-28T13:57:14.697Z,50.60
2022-12-28T13:59:46.758Z,50.00
2022-12-28T14:02:19.780Z,50.10
2022-12-28T14:04:53.085Z,48.60
2022-12-28T14:07:25.697Z,48.70
2022-12-28T14:09:54.624Z,48.80
2022-12-28T14:12:23.272Z,49.40
2022-12-28T14:14:52.456Z,49.30
2022-12-28T14:17:21.927Z,49.10
2022-12-28T14:19:52.839Z,49.40
2022-12-28T14:22:33.519Z,49.10
2022-12-28T14:25:04.240Z,49.20
2022-12-28T14:27:36.382Z,49.70
2022-12-28T14:30:07.965Z,49.50
2022-12-28T14:32:42.546Z,49.90
2022-12-28T14:35:19.784Z,49.90
2022-12-28T14:37:52.986Z,50.10
2022-12-28T14:40:27.791Z,50.10
2022-12-28T14:42:57.660Z,49.90
2022-12-28T14:46:07.486Z,50.60
2022-12-28T14:48:33.907Z,50.30
2022-12-28T14:51:06.263Z,50.70
2022-12-28T14:53:34.588Z,50.90
2022-12-28T14:56:07.329Z,50.90
2022-12-28T14:58:47.883Z,51.10
2022-12-28T15:01:20.981Z,51.40
2022-12-28T15:03:56.000Z,51.40
2022-12-28T15:06:28.789Z,51.80
2022-12-28T15:08:58.846Z,51.80
2022-12-28T15:11:28.545Z,52.00
2022-12-28T15:13:58.648Z,52.00
2022-12-28T15:16:26.816Z,51.80
2022-12-28T15:18:55.110Z,52.20
2022-12-28T15:21:25.191Z,52.10
2022-12-28T15:23:54.730Z,52.40
2022-12-28T15:26:23.873Z,52.70
2022-12-28T15:28:52.230Z,52.80
2022-12-28T15:31:22.228Z,53.10
2022-12-28T15:33:50.806Z,53.50
2022-12-28T15:36:20.721Z,53.80
2022-12-28T15:38:50.914Z,54.00
2022-12-28T15:41:37.488Z,54.40
2022-12-28T15:44:06.181Z,54.70
2022-12-28T15:46:34.654Z,55.10
2022-12-28T15:49:03.879Z,55.50
2022-12-28T15:51:32.334Z,55.80
2022-12-28T15:54:02.050Z,55.60
2022-12-28T15:56:32.166Z,55.70
2022-12-28T15:59:02.026Z,55.90
2022-12-28T16:01:32.169Z,56.00
2022-12-28T16:04:02.288Z,56.50
2022-12-28T16:06:41.880Z,56.50
2022-12-28T16:09:16.197Z,56.50
2022-12-28T16:11:54.713Z,57.00
2022-12-28T16:14:25.282Z,56.70
2022-12-28T16:22:40.273Z,57.70
2022-12-28T16:25:10.685Z,57.90
2022-12-28T16:27:39.676Z,58.00
2022-12-28T16:30:09.063Z,58.50
2022-12-28T16:32:37.257Z,58.70
2022-12-28T16:35:06.023Z,59.10
2022-12-28T16:37:34.152Z,59.30
2022-12-28T16:40:02.427Z,59.60
2022-12-28T16:42:32.222Z,59.90
2022-12-28T16:45:00.376Z,60.00
2022-12-28T16:47:28.529Z,60.50
2022-12-28T16:49:56.659Z,60.90
2022-12-28T16:52:24.827Z,61.10
2022-12-28T16:54:53.045Z,61.20
2022-12-28T16:57:21.223Z,61.40
2022-12-28T16:59:51.227Z,61.60
2022-12-28T17:02:19.502Z,61.90
2022-12-28T17:04:47.793Z,62.20
2022-12-28T17:07:15.915Z,62.40
2022-12-28T17:09:49.934Z,62.50
2022-12-28T17:12:18.543Z,62.80
2022-12-28T17:14:46.736Z,63.00
2022-12-28T17:17:16.287Z,63.20
2022-12-28T17:19:44.397Z,63.60
2022-12-28T17:22:12.641Z,63.30
2022-12-28T17:24:40.903Z,62.90
2022-12-28T17:27:11.884Z,62.50
2022-12-28T17:29:43.780Z,62.00
2022-12-28T17:32:12.028Z,61.70
2022-12-28T17:34:43.315Z,61.30
2022-12-28T17:37:11.680Z,61.10
2022-12-28T17:39:41.991Z,61.10
2022-12-28T17:42:10.645Z,61.00
2022-12-28T17:44:38.846Z,60.60
2022-12-28T17:47:07.086Z,60.70
2022-12-28T17:49:35.387Z,60.70
2022-12-28T17:52:05.177Z,60.40
2022-12-28T17:54:35.564Z,60.30
2022-12-28T17:57:04.243Z,60.30
2022-12-28T17:59:35.042Z,60.30
2022-12-28T18:02:05.139Z,60.60
2022-12-28T18:04:34.670Z,60.00
2022-12-28T18:07:04.179Z,59.80
2022-12-28T18:09:32.304Z,59.60
2022-12-28T18:12:00.543Z,59.40
2022-12-28T18:14:29.197Z,59.00
2022-12-28T18:16:57.523Z,58.80
2022-12-28T18:19:25.677Z,58.60
2022-12-28T18:21:53.930Z,58.60
2022-12-28T18:24:24.251Z,58.40
2022-12-28T18:26:52.371Z,58.20
2022-12-28T18:29:20.545Z,58.20
2022-12-28T18:31:48.797Z,58.10
2022-12-28T18:34:16.939Z,58.10
2022-12-28T18:36:45.136Z,58.10
2022-12-28T18:39:13.380Z,57.90
2022-12-28T18:41:42.894Z,57.70
2022-12-28T18:44:11.062Z,57.70
2022-12-28T18:46:39.332Z,57.80
2022-12-28T18:49:07.613Z,57.50
2022-12-28T18:51:36.551Z,57.30
2022-12-28T18:54:07.955Z,57.50
2022-12-28T18:56:36.227Z,57.50
2022-12-28T18:59:11.809Z,57.60
2022-12-28T19:02:06.059Z,57.50
2022-12-28T19:04:29.448Z,57.00
2022-12-28T19:06:57.732Z,57.00
2022-12-28T19:09:25.933Z,57.20
2022-12-28T19:11:54.049Z,57.20
2022-12-28T19:14:23.728Z,57.30
2022-12-28T19:16:51.904Z,57.30
2022-12-28T19:19:21.035Z,57.10
2022-12-28T19:21:52.314Z,56.60
2022-12-28T19:24:23.255Z,55.80
2022-12-28T19:26:53.882Z,55.90
2022-12-28T19:29:23.840Z,55.60
2022-12-28T19:31:52.078Z,55.80
2022-12-28T19:34:20.346Z,55.40
2022-12-28T19:36:51.445Z,55.00
2022-12-28T19:39:19.808Z,55.30
2022-12-28T19:41:48.150Z,55.20
2022-12-28T19:44:23.321Z,55.00
2022-12-28T19:46:54.093Z,55.20
2022-12-28T19:49:22.394Z,55.20
2022-12-28T19:51:50.519Z,55.20
2022-12-28T19:54:18.663Z,54.30
2022-12-28T19:56:46.843Z,54.60
2022-12-28T19:59:15.014Z,54.80
2022-12-28T20:01:43.235Z,54.50
2022-12-28T20:04:14.238Z,54.20
2022-12-28T20:06:43.996Z,53.90
2022-12-28T20:09:13.214Z,54.20
2022-12-28T20:11:41.788Z,54.20
2022-12-28T20:14:12.153Z,54.30
2022-12-28T20:16:40.429Z,54.10
2022-12-28T20:19:09.451Z,53.90
2022-12-28T20:21:42.519Z,53.90
2022-12-28T20:24:13.421Z,53.80
2022-12-28T20:26:44.251Z,53.20
2022-12-28T20:29:13.587Z,53.30
2022-12-28T20:31:44.666Z,53.50
2022-12-28T20:34:12.897Z,53.60
2022-12-28T20:36:42.482Z,53.70
2022-12-28T20:39:10.673Z,53.80
2022-12-28T20:42:07.992Z,53.70
2022-12-28T20:44:36.154Z,53.60
2022-12-28T20:47:04.523Z,53.70
2022-12-28T20:49:33.201Z,53.70
2022-12-28T20:52:02.821Z,53.60
2022-12-28T20:54:31.003Z,53.60
2022-12-28T20:56:59.124Z,53.50
2022-12-28T20:59:27.388Z,53.30
2022-12-28T21:01:55.868Z,53.50
2022-12-28T21:04:26.109Z,53.70
2022-12-28T21:06:57.209Z,53.60
2022-12-28T21:09:31.389Z,53.60
2022-12-28T21:12:01.988Z,53.50
2022-12-28T21:14:34.877Z,53.60
2022-12-28T21:17:03.080Z,53.60
2022-12-28T21:19:31.214Z,53.60
2022-12-28T21:21:59.399Z,53.50
2022-12-28T21:24:29.048Z,53.80
2022-12-28T21:26:57.208Z,53.60
2022-12-28T21:29:26.128Z,53.30
2022-12-28T21:31:55.079Z,53.50
2022-12-28T21:34:23.536Z,53.20
2022-12-28T21:36:51.671Z,53.20
2022-12-28T21:39:20.034Z,53.30
2022-12-28T21:41:49.640Z,53.40
2022-12-28T21:44:20.605Z,53.40
2022-12-28T21:46:50.714Z,53.80
2022-12-28T21:49:19.082Z,53.50
2022-12-28T21:51:47.514Z,53.40
2022-12-28T21:54:17.280Z,53.40
2022-12-28T21:56:47.052Z,53.50
2022-12-28T21:59:16.745Z,53.60
2022-12-28T22:02:02.599Z,53.50
2022-12-28T22:04:48.626Z,53.50
2022-12-28T22:07:18.980Z,53.30
2022-12-28T22:10:05.235Z,53.50
2022-12-28T22:12:37.202Z,53.40
2022-12-28T22:15:27.992Z,53.10
2022-12-28T22:17:57.692Z,53.00
2022-12-28T22:20:27.634Z,52.30
2022-12-28T22:22:57.453Z,52.50
2022-12-28T22:25:26.453Z,52.40
2022-12-28T22:27:54.602Z,52.40
2022-12-28T22:30:24.238Z,52.40
2022-12-28T22:32:52.460Z,52.40
2022-12-28T22:35:20.984Z,52.40
2022-12-28T22:37:49.228Z,52.30
2022-12-28T22:40:18.023Z,52.50
2022-12-28T22:42:48.238Z,52.30
2022-12-28T22:45:18.401Z,52.20
2022-12-28T22:47:48.511Z,51.90
2022-12-28T22:50:18.668Z,51.80
2022-12-28T22:52:47.606Z,51.80
2022-12-28T22:55:15.814Z,51.50
2022-12-28T22:57:44.285Z,51.90
2022-12-28T23:00:15.537Z,51.70
2022-12-28T23:02:44.901Z,51.50
2022-12-28T23:05:14.620Z,50.70
2022-12-28T23:07:42.803Z,50.70
2022-12-28T23:10:11.471Z,50.90
2022-12-28T23:12:39.626Z,51.00
2022-12-28T23:15:18.921Z,50.80
2022-12-28T23:17:48.125Z,50.70
2022-12-28T23:20:36.245Z,49.50
2022-12-28T23:23:21.931Z,49.80
2022-12-28T23:26:07.984Z,50.20
2022-12-28T23:28:37.059Z,50.00
2022-12-28T23:31:05.658Z,49.50
2022-12-28T23:33:34.097Z,50.20
2022-12-28T23:36:06.365Z,49.30
2022-12-28T23:38:34.881Z,49.60
2022-12-28T23:41:24.706Z,49.50
2022-12-28T23:43:52.904Z,49.20
2022-12-28T23:46:21.147Z,48.80
2022-12-28T23:48:49.366Z,49.30
2022-12-28T23:51:20.652Z,49.10
2022-12-28T23:53:48.800Z,48.50
2022-12-28T23:56:16.965Z,49.00
2022-12-28T23:58:45.085Z,48.60
